Time;durP1;ratioP1;P1;durP2;ratioP2;P2;SDS_P1;SDS_P2;PMS_P1;PMS_P2;Temp;Humidity;BMP_temperature;BMP_pressure;BME280_temperature;BME280_humidity;BME280_pressure;Samples;Min_cycle;Max_cycle;Signal;HPM_P1;HPM_P2
2023/06/29 00:00:40;;;;;;;4.1;3.1;;;;;;;;;;;;;
2023/06/29 00:03:11;;;;;;;5;3.2;;;;;;;;;;;;;
2023/06/29 00:05:33;;;;;;;3.9;2.9;;;;;;;;;;;;;
2023/06/29 00:07:59;;;;;;;3.7;3;;;;;;;;;;;;;
2023/06/29 00:10:24;;;;;;;4.2;2.8;;;;;;;;;;;;;
2023/06/29 00:12:48;;;;;;;3.6;2.9;;;;;;;;;;;;;
2023/06/29 00:15:14;;;;;;;4.4;3.1;;;;;;;;;;;;;
2023/06/29 00:17:59;;;;;;;5;3.7;;;;;;;;;;;;;
2023/06/29 00:20:28;;;;;;;3.5;2.9;;;;;;;;;;;;;
2023/06/29 00:22:49;;;;;;;4.9;3.2;;;;;;;;;;;;;
2023/06/29 00:25:16;;;;;;;4.5;3.1;;;;;;;;;;;;;
2023/06/29 00:27:41;;;;;;;6.2;3.4;;;;;;;;;;;;;
2023/06/29 00:30:07;;;;;;;3.9;3.2;;;;;;;;;;;;;
2023/06/29 00:32:32;;;;;;;5.1;4;;;;;;;;;;;;;
2023/06/29 00:34:57;;;;;;;5.7;3.5;;;;;;;;;;;;;
2023/06/29 00:37:23;;;;;;;4.5;3.3;;;;;;;;;;;;;
2023/06/29 00:39:48;;;;;;;4.2;3.4;;;;;;;;;;;;;
2023/06/29 00:42:13;;;;;;;5.1;3.2;;;;;;;;;;;;;
2023/06/29 00:44:40;;;;;;;5;3.6;;;;;;;;;;;;;
2023/06/29 00:47:05;;;;;;;4.4;3.8;;;;;;;;;;;;;
2023/06/29 00:49:31;;;;;;;6.2;3.4;;;;;;;;;;;;;
2023/06/29 00:51:56;;;;;;;4.6;3.3;;;;;;;;;;;;;
2023/06/29 00:54:21;;;;;;;3.5;3.2;;;;;;;;;;;;;
2023/06/29 00:56:47;;;;;;;4.1;3.3;;;;;;;;;;;;;
2023/06/29 00:59:12;;;;;;;6.3;3.1;;;;;;;;;;;;;
2023/06/29 01:01:37;;;;;;;3.7;3.1;;;;;;;;;;;;;
2023/06/29 01:04:04;;;;;;;4.7;3.6;;;;;;;;;;;;;
2023/06/29 01:06:29;;;;;;;4.7;3.1;;;;;;;;;;;;;
2023/06/29 01:08:54;;;;;;;5.7;3.2;;;;;;;;;;;;;
2023/06/29 01:11:19;;;;;;;6.5;3.5;;;;;;;;;;;;;
2023/06/29 01:13:44;;;;;;;5.7;3.4;;;;;;;;;;;;;
2023/06/29 01:16:09;;;;;;;4.6;3.4;;;;;;;;;;;;;
2023/06/29 01:18:35;;;;;;;5.2;3.4;;;;;;;;;;;;;
2023/06/29 01:21:00;;;;;;;5.9;3.4;;;;;;;;;;;;;
2023/06/29 01:23:25;;;;;;;4.7;3.3;;;;;;;;;;;;;
2023/06/29 01:25:51;;;;;;;3.7;3.3;;;;;;;;;;;;;
2023/06/29 01:28:15;;;;;;;4.2;3.4;;;;;;;;;;;;;
2023/06/29 01:30:45;;;;;;;4.6;2.8;;;;;;;;;;;;;
2023/06/29 01:33:05;;;;;;;3.8;3.1;;;;;;;;;;;;;
2023/06/29 01:35:31;;;;;;;9.6;3.8;;;;;;;;;;;;;
2023/06/29 01:37:56;;;;;;;4.4;3.5;;;;;;;;;;;;;
2023/06/29 01:40:23;;;;;;;5;3.3;;;;;;;;;;;;;
2023/06/29 01:42:48;;;;;;;4.3;3;;;;;;;;;;;;;
2023/06/29 01:45:14;;;;;;;5.6;3.1;;;;;;;;;;;;;
2023/06/29 01:47:39;;;;;;;4.1;3.1;;;;;;;;;;;;;
2023/06/29 01:50:04;;;;;;;4.1;3.6;;;;;;;;;;;;;
2023/06/29 01:52:29;;;;;;;5.2;3.4;;;;;;;;;;;;;
2023/06/29 01:54:55;;;;;;;5.2;3.5;;;;;;;;;;;;;
2023/06/29 01:57:20;;;;;;;5.1;3.8;;;;;;;;;;;;;
2023/06/29 01:59:46;;;;;;;4.8;3.6;;;;;;;;;;;;;
2023/06/29 02:02:11;;;;;;;5.1;3.6;;;;;;;;;;;;;
2023/06/29 02:04:36;;;;;;;4;3.5;;;;;;;;;;;;;
2023/06/29 02:07:01;;;;;;;4.9;3.6;;;;;;;;;;;;;
2023/06/29 02:09:26;;;;;;;5.9;3.4;;;;;;;;;;;;;
2023/06/29 02:11:52;;;;;;;6.7;3.3;;;;;;;;;;;;;
2023/06/29 02:14:18;;;;;;;4.6;3.3;;;;;;;;;;;;;
2023/06/29 02:16:44;;;;;;;5;3.5;;;;;;;;;;;;;
2023/06/29 02:19:09;;;;;;;3.9;3.5;;;;;;;;;;;;;
2023/06/29 02:21:34;;;;;;;6.3;3.4;;;;;;;;;;;;;
2023/06/29 02:23:59;;;;;;;6.4;3.1;;;;;;;;;;;;;
2023/06/29 02:26:25;;;;;;;3.6;3.2;;;;;;;;;;;;;
2023/06/29 02:28:51;;;;;;;5.4;3.6;;;;;;;;;;;;;
2023/06/29 02:31:17;;;;;;;4.9;3.2;;;;;;;;;;;;;
2023/06/29 02:33:44;;;;;;;3.8;3.4;;;;;;;;;;;;;
2023/06/29 02:36:09;;;;;;;4.3;3.6;;;;;;;;;;;;;
2023/06/29 02:38:49;;;;;;;5.7;3.8;;;;;;;;;;;;;
2023/06/29 02:41:02;;;;;;;4.6;3.4;;;;;;;;;;;;;
2023/06/29 02:43:27;;;;;;;3.9;3.1;;;;;;;;;;;;;
2023/06/29 02:45:52;;;;;;;5.2;3.3;;;;;;;;;;;;;
2023/06/29 02:48:17;;;;;;;4.4;3.4;;;;;;;;;;;;;
2023/06/29 02:50:43;;;;;;;6.3;4.1;;;;;;;;;;;;;
2023/06/29 02:53:11;;;;;;;5.8;3.3;;;;;;;;;;;;;
2023/06/29 02:55:34;;;;;;;5.5;3.3;;;;;;;;;;;;;
2023/06/29 02:58:01;;;;;;;5.8;3.7;;;;;;;;;;;;;
2023/06/29 03:00:26;;;;;;;5.2;3.5;;;;;;;;;;;;;
2023/06/29 03:02:51;;;;;;;4.4;3.4;;;;;;;;;;;;;
2023/06/29 03:05:19;;;;;;;4.3;3.4;;;;;;;;;;;;;
2023/06/29 03:07:44;;;;;;;6;3.5;;;;;;;;;;;;;
2023/06/29 03:10:10;;;;;;;5.1;3.3;;;;;;;;;;;;;
2023/06/29 03:12:35;;;;;;;5;3.4;;;;;;;;;;;;;
2023/06/29 03:15:22;;;;;;;4.6;3.4;;;;;;;;;;;;;
2023/06/29 03:17:48;;;;;;;4;3.4;;;;;;;;;;;;;
2023/06/29 03:20:14;;;;;;;6.1;3.6;;;;;;;;;;;;;
2023/06/29 03:22:38;;;;;;;5.3;3.3;;;;;;;;;;;;;
2023/06/29 03:25:03;;;;;;;4;3.2;;;;;;;;;;;;;
2023/06/29 03:27:49;;;;;;;3.8;2.9;;;;;;;;;;;;;
2023/06/29 03:30:17;;;;;;;4;3.1;;;;;;;;;;;;;
2023/06/29 03:32:42;;;;;;;4.2;3.2;;;;;;;;;;;;;
2023/06/29 03:35:11;;;;;;;3.9;3;;;;;;;;;;;;;
2023/06/29 03:37:38;;;;;;;4.6;3.4;;;;;;;;;;;;;
2023/06/29 03:40:03;;;;;;;4.6;3.1;;;;;;;;;;;;;
2023/06/29 03:42:29;;;;;;;4.1;3.3;;;;;;;;;;;;;
2023/06/29 03:44:53;;;;;;;4.1;3.4;;;;;;;;;;;;;
2023/06/29 03:47:20;;;;;;;4.1;3.5;;;;;;;;;;;;;
2023/06/29 03:49:44;;;;;;;5.6;3.7;;;;;;;;;;;;;
2023/06/29 03:52:12;;;;;;;5.5;3.5;;;;;;;;;;;;;
2023/06/29 03:54:37;;;;;;;4.6;3.3;;;;;;;;;;;;;
2023/06/29 03:57:03;;;;;;;5.9;3.3;;;;;;;;;;;;;
2023/06/29 03:59:28;;;;;;;5;3.6;;;;;;;;;;;;;
2023/06/29 04:06:07;;;;;;;4.6;3.3;;;;;;;11.72;90.43359;939.0887;;;;
2023/06/29 04:09:16;;;;;;;4.3;3.1;;;;;;;11.56;91.47754;939.0891;;;;
2023/06/29 04:11:45;;;;;;;6;3.6;;;;;;;11.36;92.79688;939.0953;;;;
2023/06/29 04:14:10;;;;;;;5.5;3.5;;;;;;;11.54;92.12402;939.0506;;;;
2023/06/29 04:16:36;;;;;;;4;3.2;;;;;;;11.65;91.08496;939.1163;;;;
2023/06/29 04:19:06;;;;;;;5;3.2;;;;;;;11.52;92.27148;939.1342;;;;
2023/06/29 04:21:37;;;;;;;5.8;3.9;;;;;;;11.65;91.64551;939.0988;;;;
2023/06/29 04:24:06;;;;;;;5.2;3.4;;;;;;;11.55;92.26563;939.0666;;;;
2023/06/29 04:26:32;;;;;;;6;3.7;;;;;;;11.59;92.05566;939.0653;;;;
2023/06/29 04:29:01;;;;;;;4.9;3.5;;;;;;;11.76;91.02734;939.0483;;;;
2023/06/29 04:31:26;;;;;;;5.9;3.7;;;;;;;11.43;92.57227;939.0739;;;;
2023/06/29 04:33:51;;;;;;;5.8;3.6;;;;;;;11.43;92.98438;939.0244;;;;
2023/06/29 04:38:53;;;;;;;8.1;4.1;;;;;;;11.52;92.71582;939.0313;;;;
2023/06/29 04:41:17;;;;;;;6.1;3.8;;;;;;;11.77;91.93359;939.0413;;;;
2023/06/29 04:43:49;;;;;;;5.9;4;;;;;;;11.65;91.88574;938.9847;;;;
2023/06/29 04:46:11;;;;;;;4.9;3.9;;;;;;;11.52;92.77441;938.997;;;;
2023/06/29 04:48:38;;;;;;;7.9;4.9;;;;;;;11.59;93.16602;938.9617;;;;
2023/06/29 04:51:04;;;;;;;5.1;4.1;;;;;;;11.76;92.05762;938.9462;;;;
2023/06/29 04:53:32;;;;;;;5.6;4.1;;;;;;;11.99;90.50195;938.9656;;;;
2023/06/29 04:55:58;;;;;;;5.6;4.1;;;;;;;11.82;91.08496;938.9607;;;;
2023/06/29 04:58:25;;;;;;;5.8;3.9;;;;;;;11.91;91.43555;938.9381;;;;
2023/06/29 05:00:50;;;;;;;5.4;3.7;;;;;;;11.83;91.34961;938.8762;;;;
2023/06/29 05:03:16;;;;;;;6.2;3.8;;;;;;;11.83;92.0957;938.8627;;;;
2023/06/29 05:05:41;;;;;;;5.9;4;;;;;;;12.42;92.4502;938.8253;;;;
2023/06/29 05:08:08;;;;;;;6.1;2.8;;;;;;;13.79;85.6543;938.8193;;;;
2023/06/29 05:12:58;;;;;;;5.7;3;;;;;;;15.89;74.16406;938.7228;;;;
2023/06/29 05:15:28;;;;;;;3.3;2.7;;;;;;;16.47;71.16992;938.6206;;;;
2023/06/29 05:17:52;;;;;;;3;2.2;;;;;;;16.92;68.32324;938.5447;;;;
2023/06/29 05:20:20;;;;;;;3.5;2.5;;;;;;;18.22;64.63281;938.552;;;;
2023/06/29 05:22:45;;;;;;;4.9;3;;;;;;;19.26;61.56055;938.5881;;;;
2023/06/29 05:25:16;;;;;;;9.9;4.2;;;;;;;19.79;59.86035;938.5446;;;;
2023/06/29 05:28:22;;;;;;;9.2;4.1;;;;;;;19.86;59.4043;938.5931;;;;
2023/06/29 05:30:49;;;;;;;5.1;3.6;;;;;;;20.12;58.63281;938.4938;;;;
2023/06/29 05:33:41;;;;;;;5.6;2.9;;;;;;;20.75;56.54395;938.4738;;;;
2023/06/29 05:36:08;;;;;;;5.5;2.9;;;;;;;21.12;53.51367;938.4398;;;;
2023/06/29 05:38:33;;;;;;;2.8;2.3;;;;;;;20.98;53.96484;938.4269;;;;
2023/06/29 05:42:15;;;;;;;2.1;1.9;;;;;;;20.34;56.22168;938.4767;;;;
2023/06/29 05:44:41;;;;;;;3.1;1.8;;;;;;;21.48;52.77246;938.4877;;;;
2023/06/29 05:47:06;;;;;;;3.3;1.8;;;;;;;21.49;52.6582;938.3672;;;;
2023/06/29 05:49:34;;;;;;;3.5;1.7;;;;;;;22.04;54.69141;938.4196;;;;
2023/06/29 05:51:59;;;;;;;4.4;2;;;;;;;22.71;50.98242;938.4283;;;;
2023/06/29 05:54:28;;;;;;;3.4;1.9;;;;;;;22.72;49.66895;938.3881;;;;
2023/06/29 05:57:19;;;;;;;2.4;1.9;;;;;;;23.01;48.49121;938.376;;;;
2023/06/29 05:59:47;;;;;;;3.3;2;;;;;;;23.91;46.42285;938.3532;;;;
2023/06/29 06:02:12;;;;;;;2.7;2.2;;;;;;;23.72;47.22852;938.3713;;;;
2023/06/29 06:04:42;;;;;;;3.1;2;;;;;;;23.22;47.67969;938.2937;;;;
2023/06/29 06:07:06;;;;;;;2.4;1.9;;;;;;;23.8;46.84863;938.2394;;;;
2023/06/29 06:09:32;;;;;;;2.8;1.8;;;;;;;24.17;45.95605;938.2595;;;;
2023/06/29 06:11:57;;;;;;;2.5;2;;;;;;;23.75;46.06641;938.205;;;;
2023/06/29 06:14:23;;;;;;;2.9;1.6;;;;;;;24.17;45.49609;938.2644;;;;
2023/06/29 06:16:49;;;;;;;2.6;1.9;;;;;;;25.15;44.35742;938.2051;;;;
2023/06/29 06:19:15;;;;;;;2.9;1.7;;;;;;;25.79;44.01953;938.1711;;;;
2023/06/29 06:21:40;;;;;;;3;1.9;;;;;;;27.13;41.6377;938.2418;;;;
2023/06/29 06:24:08;;;;;;;2.7;1.9;;;;;;;27.3;41.21387;938.1789;;;;
2023/06/29 06:26:33;;;;;;;2.7;1.6;;;;;;;26.16;41.41699;938.1403;;;;
2023/06/29 06:28:58;;;;;;;2.3;1.6;;;;;;;26.78;42.24512;938.0995;;;;
2023/06/29 06:31:25;;;;;;;3.7;2;;;;;;;26.75;41.08105;938.1038;;;;
2023/06/29 06:33:52;;;;;;;2.7;1.8;;;;;;;27.07;40.6123;938.0417;;;;
2023/06/29 06:36:16;;;;;;;2.8;1.8;;;;;;;26.68;41.50098;938.0471;;;;
2023/06/29 06:38:42;;;;;;;2.1;1.8;;;;;;;27.79;39.43066;938.0038;;;;
2023/06/29 06:41:07;;;;;;;2.2;1.5;;;;;;;27.59;38.60645;938.0392;;;;
2023/06/29 06:43:33;;;;;;;2;1.6;;;;;;;27.08;40.10352;937.9631;;;;
2023/06/29 06:45:58;;;;;;;3.4;1.8;;;;;;;27.26;39.96484;938.0258;;;;
2023/06/29 06:48:26;;;;;;;2.2;1.6;;;;;;;27.58;38.96094;937.935;;;;
2023/06/29 06:50:51;;;;;;;2.2;1.5;;;;;;;28;38.1543;937.8794;;;;
2023/06/29 06:53:16;;;;;;;2.3;1.5;;;;;;;26.47;40.35645;937.8798;;;;
2023/06/29 06:55:42;;;;;;;2.9;1.7;;;;;;;27.43;39.35156;937.7961;;;;
2023/06/29 06:58:07;;;;;;;3.6;1.8;;;;;;;28.66;38.28125;937.7104;;;;
2023/06/29 07:00:35;;;;;;;2.6;1.8;;;;;;;28.87;36.62109;937.7363;;;;
2023/06/29 07:03:00;;;;;;;2.7;1.8;;;;;;;28.87;35.51465;937.6951;;;;
2023/06/29 07:05:26;;;;;;;3.2;1.6;;;;;;;27.87;37.47852;937.731;;;;
2023/06/29 07:07:53;;;;;;;3;1.8;;;;;;;28.36;36.9248;937.7463;;;;
2023/06/29 07:10:21;;;;;;;2.4;1.9;;;;;;;28.63;36.31641;937.6472;;;;
2023/06/29 07:12:51;;;;;;;3.6;2.2;;;;;;;28.6;35.98047;937.6343;;;;
2023/06/29 07:15:17;;;;;;;2.8;2;;;;;;;27.81;36.83301;937.6373;;;;
2023/06/29 07:17:45;;;;;;;1.7;1.6;;;;;;;29.07;35.69727;937.5803;;;;
2023/06/29 07:20:10;;;;;;;1.8;1.7;;;;;;;29.54;34.17188;937.6192;;;;
2023/06/29 07:22:35;;;;;;;3.1;1.9;;;;;;;28.66;35.36719;937.6744;;;;
2023/06/29 07:25:00;;;;;;;2.4;1.6;;;;;;;28.22;36.22363;937.5833;;;;
2023/06/29 07:27:25;;;;;;;2.7;1.9;;;;;;;29.31;34.69141;937.5466;;;;
2023/06/29 07:29:50;;;;;;;3.4;1.7;;;;;;;31.2;33.12598;937.5211;;;;
2023/06/29 07:32:17;;;;;;;3.5;2.1;;;;;;;30.53;31.48828;937.5061;;;;
2023/06/29 07:34:42;;;;;;;3.5;2;;;;;;;30.33;31.61719;937.5084;;;;
2023/06/29 07:37:07;;;;;;;3.3;1.6;;;;;;;31.1;31.80273;937.4733;;;;
2023/06/29 07:39:33;;;;;;;3.1;1.9;;;;;;;31.14;31.1123;937.368;;;;
2023/06/29 07:41:58;;;;;;;3;1.5;;;;;;;31.73;30.9248;937.3485;;;;
2023/06/29 07:44:23;;;;;;;2.1;1.4;;;;;;;32.11;29.84766;937.318;;;;
2023/06/29 07:46:51;;;;;;;2.7;1.6;;;;;;;32.79;30.5293;937.252;;;;
2023/06/29 07:49:16;;;;;;;2;1.7;;;;;;;31.89;30.58789;937.2349;;;;
2023/06/29 07:51:43;;;;;;;2.4;1.6;;;;;;;32.44;30.66113;937.2292;;;;
2023/06/29 07:54:08;;;;;;;3.2;2.1;;;;;;;31.28;29.24316;937.226;;;;
2023/06/29 07:56:37;;;;;;;2.8;2;;;;;;;32.59;29.33887;937.2177;;;;
2023/06/29 07:59:02;;;;;;;2.3;2.1;;;;;;;32.72;28.7959;937.1597;;;;
2023/06/29 08:01:27;;;;;;;2.1;1.9;;;;;;;31.46;30.23633;937.1927;;;;
2023/06/29 08:03:52;;;;;;;1.9;1.7;;;;;;;31.48;32.64355;937.1816;;;;
2023/06/29 08:06:18;;;;;;;2.9;1.9;;;;;;;32.2;30.64551;937.1074;;;;
2023/06/29 08:08:43;;;;;;;2;1.7;;;;;;;32.7;29.41797;937.1228;;;;
2023/06/29 08:11:08;;;;;;;2.8;1.9;;;;;;;33.05;29.64551;937.1365;;;;
2023/06/29 08:13:36;;;;;;;3.3;2.2;;;;;;;32.94;29.21777;937.1495;;;;
2023/06/29 08:16:01;;;;;;;3.1;2;;;;;;;32.78;30.74414;937.1292;;;;
2023/06/29 08:18:27;;;;;;;4;2.3;;;;;;;33.78;28.21289;937.0776;;;;
2023/06/29 08:20:52;;;;;;;3.4;2.1;;;;;;;34.38;27.62402;937.0633;;;;
2023/06/29 08:23:19;;;;;;;2.3;1.6;;;;;;;32.88;28.15723;936.9989;;;;
2023/06/29 08:25:44;;;;;;;3.1;2;;;;;;;33.35;28.11426;936.9269;;;;
2023/06/29 08:28:12;;;;;;;3.3;2.1;;;;;;;33.19;30.25488;936.8967;;;;
2023/06/29 08:30:37;;;;;;;3.6;2.2;;;;;;;31.63;31.99512;936.9105;;;;
2023/06/29 08:33:04;;;;;;;3.7;2.2;;;;;;;31.89;30.34961;936.8529;;;;
2023/06/29 08:35:30;;;;;;;2.5;2.2;;;;;;;32.65;28.33496;936.8817;;;;
2023/06/29 08:37:55;;;;;;;3;2;;;;;;;33.78;29.33203;936.8628;;;;
2023/06/29 08:40:21;;;;;;;3.4;2;;;;;;;34.3;26.83594;936.8483;;;;
2023/06/29 08:42:46;;;;;;;2.6;2;;;;;;;34.21;27.5293;936.8669;;;;
2023/06/29 08:45:11;;;;;;;2.7;2.1;;;;;;;34.18;27.22656;936.8943;;;;
2023/06/29 08:47:41;;;;;;;6.5;2.3;;;;;;;32.6;29.45996;936.82;;;;
2023/06/29 08:50:06;;;;;;;3.8;2;;;;;;;33.92;27.24707;936.76;;;;
2023/06/29 08:52:33;;;;;;;2.8;2.2;;;;;;;34.9;27.28223;936.738;;;;
2023/06/29 08:54:58;;;;;;;2.8;1.9;;;;;;;34.3;27.73926;936.6536;;;;
2023/06/29 08:57:24;;;;;;;3.7;1.9;;;;;;;33.44;30.2002;936.6476;;;;
2023/06/29 08:59:49;;;;;;;2.1;1.8;;;;;;;33.19;31.02539;936.5803;;;;
2023/06/29 09:02:14;;;;;;;3.9;2.3;;;;;;;31.59;34.1123;936.5951;;;;
2023/06/29 09:04:44;;;;;;;2.5;2;;;;;;;32.46;29.7627;936.5641;;;;
2023/06/29 09:07:06;;;;;;;1.8;1.7;;;;;;;30.7;31.78711;936.5281;;;;
2023/06/29 09:09:32;;;;;;;3.5;2;;;;;;;30.1;34.7041;936.5731;;;;
2023/06/29 09:11:57;;;;;;;4.8;2.2;;;;;;;30.2;33.42285;936.5264;;;;
2023/06/29 09:14:23;;;;;;;4.6;2.2;;;;;;;30.18;34.24414;936.5147;;;;
2023/06/29 09:16:48;;;;;;;3;2;;;;;;;31.51;30.50195;936.4309;;;;
2023/06/29 09:19:14;;;;;;;2.5;2;;;;;;;31;32.02246;936.3918;;;;
2023/06/29 09:21:42;;;;;;;3.3;2.1;;;;;;;30.75;35.77051;936.3773;;;;
2023/06/29 09:24:07;;;;;;;2.6;2.2;;;;;;;30.14;35.68652;936.4498;;;;
2023/06/29 09:26:35;;;;;;;3.6;2.1;;;;;;;30.91;33.21289;936.4091;;;;
2023/06/29 09:29:01;;;;;;;2.2;2;;;;;;;30.4;36.45898;936.3835;;;;
2023/06/29 09:31:32;;;;;;;2.8;2;;;;;;;30.98;35.07031;936.3801;;;;
2023/06/29 09:33:51;;;;;;;2.8;2.1;;;;;;;29.51;37.68652;936.4215;;;;
2023/06/29 09:36:15;;;;;;;4.3;2.2;;;;;;;29.15;36.79883;936.3114;;;;
2023/06/29 09:38:44;;;;;;;2.5;2.1;;;;;;;29.3;37.52637;936.3492;;;;
2023/06/29 09:41:09;;;;;;;2.8;2.2;;;;;;;28.64;39.0293;936.3078;;;;
2023/06/29 09:43:34;;;;;;;3.8;2.2;;;;;;;27.78;39.78613;936.2282;;;;
2023/06/29 09:45:59;;;;;;;3.7;2.4;;;;;;;27.71;41.46484;936.2335;;;;
2023/06/29 09:48:24;;;;;;;2.8;2.2;;;;;;;27.5;41.33887;936.163;;;;
2023/06/29 09:50:51;;;;;;;2.8;2.2;;;;;;;27.24;44.54102;936.21;;;;
2023/06/29 09:53:15;;;;;;;3.6;2;;;;;;;27.01;44.0918;936.1171;;;;
2023/06/29 09:55:41;;;;;;;3.2;2.3;;;;;;;27.02;44.34082;936.0455;;;;
2023/06/29 09:58:07;;;;;;;4.7;2.1;;;;;;;27.32;41.5957;936.0773;;;;
2023/06/29 10:00:34;;;;;;;3.6;2.1;;;;;;;27.54;42.71875;936.0633;;;;
2023/06/29 10:02:59;;;;;;;4;2.5;;;;;;;27.52;42.36133;936.0256;;;;
2023/06/29 10:05:30;;;;;;;3.1;2.6;;;;;;;27.51;43.4043;935.998;;;;
2023/06/29 10:07:53;;;;;;;3.2;2.4;;;;;;;27.9;42.77832;935.9922;;;;
2023/06/29 10:10:19;;;;;;;4.2;2.6;;;;;;;28;41.07617;935.9247;;;;
2023/06/29 10:12:44;;;;;;;2.7;2.1;;;;;;;27.57;40.20703;935.9734;;;;
2023/06/29 10:15:14;;;;;;;2.9;2.3;;;;;;;27.94;40.90527;935.9258;;;;
2023/06/29 10:17:42;;;;;;;3.7;2.4;;;;;;;28.01;40.51855;935.8461;;;;
2023/06/29 10:20:08;;;;;;;3.6;2.6;;;;;;;27.81;40.63184;935.8492;;;;
2023/06/29 10:22:37;;;;;;;4.6;2.9;;;;;;;28.08;41.89258;935.8337;;;;
2023/06/29 10:25:03;;;;;;;6.2;2.7;;;;;;;28.05;41.16406;935.7991;;;;
2023/06/29 10:27:27;;;;;;;3.9;2.8;;;;;;;28.13;40.07813;935.7416;;;;
2023/06/29 10:29:53;;;;;;;3.6;2.3;;;;;;;28.25;42.15723;935.7836;;;;
2023/06/29 10:32:18;;;;;;;3.6;2.5;;;;;;;28.03;43.69336;935.7896;;;;
2023/06/29 10:34:45;;;;;;;3.2;2.5;;;;;;;27.81;40.95215;935.7431;;;;
2023/06/29 10:37:10;;;;;;;3.8;2.7;;;;;;;27.88;42.91797;935.69;;;;
2023/06/29 10:39:35;;;;;;;5.5;2.9;;;;;;;27.9;41.35254;935.7031;;;;
2023/06/29 10:42:02;;;;;;;3.8;2.8;;;;;;;27.64;45.06641;935.6955;;;;
2023/06/29 10:44:44;;;;;;;2.8;2.5;;;;;;;27.41;43.98828;935.677;;;;
2023/06/29 10:47:09;;;;;;;4.7;2.9;;;;;;;27.4;44.93652;935.6914;;;;
2023/06/29 10:49:34;;;;;;;4.3;3.2;;;;;;;26.97;44.98926;935.6399;;;;
2023/06/29 10:51:59;;;;;;;4.5;2.9;;;;;;;27.05;44.71191;935.5903;;;;
2023/06/29 10:54:24;;;;;;;4.8;2.9;;;;;;;27.34;44.96582;935.5606;;;;
2023/06/29 10:56:49;;;;;;;4.5;2.7;;;;;;;27.79;42.03125;935.5826;;;;
2023/06/29 10:59:14;;;;;;;4.9;2.8;;;;;;;27.82;43.99316;935.5359;;;;
2023/06/29 11:01:41;;;;;;;7.1;3.2;;;;;;;27.9;42.38574;935.5689;;;;
2023/06/29 11:04:06;;;;;;;3.5;2.6;;;;;;;28.08;42.46289;935.5276;;;;
2023/06/29 11:06:33;;;;;;;4.1;2.7;;;;;;;28.07;41.85547;935.4745;;;;
2023/06/29 11:08:58;;;;;;;4.7;2.9;;;;;;;27.78;42.61133;935.4543;;;;
2023/06/29 11:11:24;;;;;;;5.4;2.8;;;;;;;27.76;44.18848;935.491;;;;
2023/06/29 11:13:50;;;;;;;3.2;2.8;;;;;;;27.81;43.1377;935.4489;;;;
2023/06/29 11:16:15;;;;;;;4.6;2.2;;;;;;;28.04;43.44434;935.4025;;;;
2023/06/29 11:18:41;;;;;;;4;2.3;;;;;;;28.52;40.86133;935.4213;;;;
2023/06/29 11:21:07;;;;;;;5;2.4;;;;;;;28.55;42.24512;935.4207;;;;
2023/06/29 11:23:32;;;;;;;5.3;2.6;;;;;;;28.37;40.50391;935.38;;;;
2023/06/29 11:25:57;;;;;;;4.4;2.5;;;;;;;28.29;43.43262;935.3522;;;;
2023/06/29 11:28:22;;;;;;;3;2.5;;;;;;;28.49;41.5498;935.283;;;;
2023/06/29 11:30:49;;;;;;;4.6;2.6;;;;;;;28.21;44.15039;935.2814;;;;
2023/06/29 11:33:14;;;;;;;3.7;2.7;;;;;;;27.97;43.52148;935.2992;;;;
2023/06/29 11:35:39;;;;;;;4.1;2.2;;;;;;;28.45;40.16699;935.2902;;;;
2023/06/29 11:38:04;;;;;;;4.2;2.7;;;;;;;28.55;41.15039;935.28;;;;
2023/06/29 11:40:31;;;;;;;3.4;2.3;;;;;;;28.36;42.48828;935.225;;;;
2023/06/29 11:42:56;;;;;;;5.7;2.9;;;;;;;28.29;42.6123;935.2605;;;;
2023/06/29 11:45:23;;;;;;;6;2.2;;;;;;;28.19;42.79297;935.1399;;;;
2023/06/29 11:47:49;;;;;;;3.1;2.4;;;;;;;28.08;43.40039;935.1234;;;;
2023/06/29 11:50:17;;;;;;;3;2.5;;;;;;;28.14;41.81348;935.1238;;;;
2023/06/29 11:52:47;;;;;;;2.8;2.5;;;;;;;28.37;41.32422;935.0215;;;;
2023/06/29 11:55:12;;;;;;;4.6;2.3;;;;;;;28.73;40.7627;935.0722;;;;
2023/06/29 11:57:39;;;;;;;3.2;2.2;;;;;;;28.73;42.62988;935.0945;;;;
2023/06/29 12:00:08;;;;;;;4.7;2.3;;;;;;;28.92;41.66016;935.0826;;;;
2023/06/29 12:02:36;;;;;;;4.8;2.5;;;;;;;29.25;38.78418;934.988;;;;
2023/06/29 12:05:03;;;;;;;4.9;2.8;;;;;;;29.18;40.0166;935.0223;;;;
2023/06/29 12:07:26;;;;;;;3.3;2.2;;;;;;;29.3;41.19531;934.9953;;;;
2023/06/29 12:09:53;;;;;;;2.8;2.4;;;;;;;29.4;40.21484;934.9423;;;;
2023/06/29 12:12:18;;;;;;;4.1;2.7;;;;;;;29;40.91797;934.9116;;;;
2023/06/29 12:14:43;;;;;;;4;2.5;;;;;;;28.75;43.2041;934.9086;;;;
2023/06/29 12:17:11;;;;;;;3.9;2.6;;;;;;;29.06;40.81543;934.9037;;;;
2023/06/29 12:19:38;;;;;;;3.4;2.8;;;;;;;29.14;40.59766;934.8425;;;;
2023/06/29 12:22:01;;;;;;;3.1;2.6;;;;;;;28.61;43.04688;934.8621;;;;
2023/06/29 12:24:27;;;;;;;5.2;2.7;;;;;;;28.72;42.18945;934.8585;;;;
2023/06/29 12:26:51;;;;;;;3.7;2.8;;;;;;;28.48;41.97559;934.8062;;;;
2023/06/29 12:29:17;;;;;;;3.7;2.3;;;;;;;28.82;40.25879;934.7789;;;;
2023/06/29 12:31:42;;;;;;;4;2.6;;;;;;;29.31;38.36133;934.7653;;;;
2023/06/29 12:34:08;;;;;;;5.8;2.8;;;;;;;29.28;41.89648;934.7427;;;;
2023/06/29 12:36:33;;;;;;;5;3.1;;;;;;;29.3;40.09961;934.6888;;;;
2023/06/29 12:38:59;;;;;;;5.3;2.8;;;;;;;29.35;41.85547;934.6693;;;;
2023/06/29 12:41:24;;;;;;;3.5;2.6;;;;;;;28.95;41.74609;934.6002;;;;
2023/06/29 12:43:51;;;;;;;6.2;2.9;;;;;;;29.01;40.26367;934.6813;;;;
2023/06/29 12:46:16;;;;;;;5.3;2.9;;;;;;;28.98;40.18945;934.6705;;;;
2023/06/29 12:48:45;;;;;;;3.8;2.6;;;;;;;28.7;41.52051;934.6494;;;;
2023/06/29 12:51:09;;;;;;;4.4;2.8;;;;;;;28.56;40.30664;934.6435;;;;
2023/06/29 12:53:34;;;;;;;3.9;3.1;;;;;;;28.77;40.81348;934.6021;;;;
2023/06/29 12:55:59;;;;;;;4.3;2.9;;;;;;;28.9;41.74219;934.6462;;;;
2023/06/29 12:58:26;;;;;;;4.9;3.2;;;;;;;29.06;39.42285;934.6764;;;;
2023/06/29 13:00:51;;;;;;;3.8;3.1;;;;;;;29.31;40.10059;934.5963;;;;
2023/06/29 13:03:17;;;;;;;4.5;3.3;;;;;;;29.14;40.76367;934.617;;;;
2023/06/29 13:05:42;;;;;;;5;3;;;;;;;29.03;42.08691;934.5736;;;;
2023/06/29 13:08:08;;;;;;;4.8;3.4;;;;;;;28.99;40.76172;934.6311;;;;
2023/06/29 13:10:33;;;;;;;3.8;3;;;;;;;28.83;41.69922;934.6642;;;;
2023/06/29 13:13:00;;;;;;;4.7;3;;;;;;;28.86;39.58398;934.6538;;;;
2023/06/29 13:15:25;;;;;;;9.2;3.3;;;;;;;28.77;40.1709;934.6053;;;;
2023/06/29 13:17:51;;;;;;;4.9;3.3;;;;;;;28.75;42.15625;934.6083;;;;
2023/06/29 13:20:16;;;;;;;4.7;3.6;;;;;;;28.22;41.91699;934.6237;;;;
2023/06/29 13:22:43;;;;;;;4.2;3.3;;;;;;;27.94;42.46094;934.7062;;;;
2023/06/29 13:25:08;;;;;;;6.2;3.3;;;;;;;27.76;42.83496;934.676;;;;
2023/06/29 13:27:36;;;;;;;6.2;3.6;;;;;;;27.8;43.125;934.6524;;;;
2023/06/29 13:29:59;;;;;;;6.6;3.7;;;;;;;27.99;43.7373;934.6791;;;;
2023/06/29 13:32:24;;;;;;;5.1;3.6;;;;;;;28.33;41.80762;934.6164;;;;
2023/06/29 13:34:52;;;;;;;4.6;3.6;;;;;;;28.77;41.50391;934.6069;;;;
2023/06/29 13:37:17;;;;;;;6.1;3.6;;;;;;;29.03;39.09863;934.588;;;;
2023/06/29 13:39:43;;;;;;;5.6;3.6;;;;;;;29.28;37.95313;934.6365;;;;
2023/06/29 13:42:09;;;;;;;5.6;3.5;;;;;;;29.47;39.20801;934.6116;;;;
2023/06/29 13:44:36;;;;;;;5.3;3.4;;;;;;;29.53;38.60645;934.6358;;;;
2023/06/29 13:47:01;;;;;;;4.7;3.6;;;;;;;29.35;39.28125;934.5964;;;;
2023/06/29 13:49:26;;;;;;;7.6;4.1;;;;;;;28.82;39.37793;934.6166;;;;
2023/06/29 13:51:52;;;;;;;5;3.7;;;;;;;28.75;40.53809;934.6064;;;;
2023/06/29 13:54:17;;;;;;;4.9;3.7;;;;;;;28.74;38.0625;934.5897;;;;
2023/06/29 13:56:43;;;;;;;5.8;3.9;;;;;;;28.71;39.03613;934.6049;;;;
2023/06/29 13:59:08;;;;;;;6.7;4.1;;;;;;;28.57;40.16504;934.6042;;;;
2023/06/29 14:01:37;;;;;;;6.3;3.9;;;;;;;28.37;40.97949;934.6147;;;;
2023/06/29 14:04:02;;;;;;;6.5;3.7;;;;;;;28.1;40.38477;934.5137;;;;
2023/06/29 14:06:27;;;;;;;6.4;4.3;;;;;;;28;40.61328;934.5782;;;;
2023/06/29 14:08:52;;;;;;;5.6;4.1;;;;;;;28.11;40.42188;934.5661;;;;
2023/06/29 14:11:18;;;;;;;6.4;3.8;;;;;;;28.21;39.25391;934.5117;;;;
2023/06/29 14:13:45;;;;;;;6.8;4.2;;;;;;;28.33;39.09766;934.6135;;;;
2023/06/29 14:16:10;;;;;;;5.7;4;;;;;;;28.36;39.77734;934.5731;;;;
2023/06/29 14:18:36;;;;;;;7.8;4.2;;;;;;;28.31;40;934.5803;;;;
2023/06/29 14:21:01;;;;;;;7.8;4.4;;;;;;;28.35;40.37109;934.5642;;;;
2023/06/29 14:23:28;;;;;;;7;4.6;;;;;;;28.41;38.55762;934.4924;;;;
2023/06/29 14:25:53;;;;;;;5.7;4.2;;;;;;;28.4;38.61621;934.4642;;;;
2023/06/29 14:28:18;;;;;;;8.2;4.9;;;;;;;28.52;40.05273;934.4587;;;;
2023/06/29 14:30:43;;;;;;;6.3;4.8;;;;;;;28.42;39.1875;934.3911;;;;
2023/06/29 14:33:09;;;;;;;7.2;4.5;;;;;;;28.69;38.75977;934.4164;;;;
2023/06/29 14:35:34;;;;;;;7;4.7;;;;;;;28.67;37.80664;934.4158;;;;
2023/06/29 14:38:00;;;;;;;7;5;;;;;;;28.65;39.63672;934.4692;;;;
2023/06/29 14:40:25;;;;;;;9.7;5.3;;;;;;;28.6;38.32324;934.4508;;;;
2023/06/29 14:42:50;;;;;;;6.9;4.8;;;;;;;28.57;37.81055;934.472;;;;
2023/06/29 14:45:18;;;;;;;7.9;5.2;;;;;;;28.48;37.32617;934.4627;;;;
2023/06/29 14:47:43;;;;;;;7.9;4.9;;;;;;;28.49;37.73242;934.4211;;;;
2023/06/29 14:50:12;;;;;;;7.3;5.1;;;;;;;28.45;37.2168;934.3359;;;;
2023/06/29 14:52:40;;;;;;;8.4;5.7;;;;;;;28.31;38.67969;934.4277;;;;
2023/06/29 14:55:06;;;;;;;9.2;6;;;;;;;28.13;39.08008;934.3597;;;;
2023/06/29 14:57:34;;;;;;;11.5;5.9;;;;;;;28.18;38.89453;934.3646;;;;
2023/06/29 14:59:59;;;;;;;9.6;5.4;;;;;;;28.33;38.00391;934.3083;;;;
2023/06/29 15:02:27;;;;;;;9.7;5.3;;;;;;;28.45;39.81055;934.3235;;;;
2023/06/29 15:04:51;;;;;;;7.7;5.7;;;;;;;28.55;39.84277;934.285;;;;
2023/06/29 15:07:19;;;;;;;10.9;6.3;;;;;;;28.6;39.7627;934.295;;;;
2023/06/29 15:09:44;;;;;;;7.7;5.6;;;;;;;28.54;38.49707;934.3033;;;;
2023/06/29 15:12:11;;;;;;;7.8;5.6;;;;;;;28.54;37.7002;934.2267;;;;
2023/06/29 15:14:36;;;;;;;7.4;5.4;;;;;;;28.4;38.10547;934.23;;;;
2023/06/29 15:17:03;;;;;;;8.1;5.4;;;;;;;28.4;37.55762;934.2264;;;;
2023/06/29 15:19:28;;;;;;;6.8;5.2;;;;;;;28.4;38.74707;934.1939;;;;
2023/06/29 15:21:55;;;;;;;9.1;5.7;;;;;;;28.11;38.54297;934.2012;;;;
2023/06/29 15:24:20;;;;;;;8.1;6;;;;;;;28.03;38.16895;934.2014;;;;
2023/06/29 15:26:45;;;;;;;8;5.4;;;;;;;27.96;37.22461;934.1876;;;;
2023/06/29 15:29:11;;;;;;;7.9;5.4;;;;;;;27.99;37.95117;934.1578;;;;
2023/06/29 15:31:36;;;;;;;9.6;6;;;;;;;27.88;38.06055;934.1434;;;;
2023/06/29 15:34:03;;;;;;;7.5;5.4;;;;;;;28.01;37.72754;934.165;;;;
2023/06/29 15:36:28;;;;;;;10.1;6.3;;;;;;;28.08;37.70996;934.1891;;;;
2023/06/29 15:38:53;;;;;;;10.3;6.1;;;;;;;28.17;37.91895;934.1203;;;;
2023/06/29 15:41:19;;;;;;;8.7;5.7;;;;;;;28.03;37.58691;934.1152;;;;
2023/06/29 15:43:46;;;;;;;11.2;5.7;;;;;;;27.91;38.88281;934.0822;;;;
2023/06/29 15:46:14;;;;;;;9.6;5.7;;;;;;;28.02;38.72559;934.1365;;;;